Time;durP1;ratioP1;P1;durP2;ratioP2;P2;SDS_P1;SDS_P2;PMS_P1;PMS_P2;Temp;Humidity;BMP_temperature;BMP_pressure;BME280_temperature;BME280_humidity;BME280_pressure;Samples;Min_cycle;Max_cycle;Signal;HPM_P1;HPM_P2
2021/04/26 00:00:48;;;;;;;3.30;0.30;;;3.90;99.90;;;;;;5062568;28;20033;-78
2021/04/26 00:03:14;;;;;;;3.53;0.93;;;3.90;99.90;;;;;;5045843;28;20033;-77
2021/04/26 00:05:40;;;;;;;4.20;0.40;;;3.80;99.90;;;;;;5045642;28;20059;-77
2021/04/26 00:08:06;;;;;;;3.55;0.45;;;3.80;99.90;;;;;;5062527;28;20075;-77
2021/04/26 00:10:32;;;;;;;4.03;0.40;;;3.80;99.90;;;;;;5045862;28;20117;-77
2021/04/26 00:12:58;;;;;;;3.25;0.32;;;3.70;99.90;;;;;;5045950;28;20057;-77
2021/04/26 00:15:28;;;;;;;4.65;0.40;;;3.70;99.90;;;;;;5045904;28;20033;-77
2021/04/26 00:17:54;;;;;;;3.15;0.40;;;3.60;99.90;;;;;;5062436;28;20076;-77
2021/04/26 00:20:24;;;;;;;4.88;0.30;;;3.70;99.90;;;;;;5062524;28;20038;-77
2021/04/26 00:22:50;;;;;;;4.13;0.50;;;3.60;99.90;;;;;;5062236;28;20481;-77
2021/04/26 00:25:16;;;;;;;4.13;0.50;;;3.60;99.90;;;;;;5029144;28;20033;-77
2021/04/26 00:27:42;;;;;;;2.63;0.40;;;3.60;99.90;;;;;;5029089;28;20437;-77
2021/04/26 00:30:14;;;;;;;1.38;0.40;;;3.50;99.90;;;;;;5045488;28;20030;-77
2021/04/26 00:32:39;;;;;;;2.17;0.40;;;3.50;99.90;;;;;;5028945;28;20106;-77
2021/04/26 00:35:07;;;;;;;4.28;0.30;;;3.50;99.90;;;;;;5030430;28;20084;-77
2021/04/26 00:37:32;;;;;;;3.08;0.40;;;3.50;99.90;;;;;;5042104;28;20208;-77
2021/04/26 00:39:58;;;;;;;1.40;0.30;;;3.50;99.90;;;;;;5042178;28;20184;-77
2021/04/26 00:42:24;;;;;;;3.45;0.30;;;3.40;99.90;;;;;;5041798;28;20061;-77
2021/04/26 00:44:50;;;;;;;1.38;0.32;;;3.40;99.90;;;;;;5046047;28;20048;-77
2021/04/26 00:47:16;;;;;;;3.17;0.38;;;3.40;99.90;;;;;;5046496;28;20354;-77
2021/04/26 00:49:42;;;;;;;2.88;0.43;;;3.40;99.90;;;;;;5061785;28;20036;-77
2021/04/26 00:52:08;;;;;;;1.17;0.30;;;3.30;99.90;;;;;;5061893;28;20033;-77
2021/04/26 00:54:34;;;;;;;4.40;0.40;;;3.30;99.90;;;;;;5061569;28;20061;-77
2021/04/26 00:56:59;;;;;;;3.45;0.32;;;3.30;99.90;;;;;;5028449;28;20041;-77
2021/04/26 00:59:26;;;;;;;6.85;2.05;;;3.30;99.90;;;;;;5061436;28;20059;-77
2021/04/26 01:01:52;;;;;;;2.88;0.38;;;3.20;99.90;;;;;;5028650;28;20474;-77
2021/04/26 01:04:18;;;;;;;1.63;0.40;;;3.20;99.90;;;;;;5061310;28;20059;-77
2021/04/26 01:06:44;;;;;;;1.08;0.30;;;3.20;99.90;;;;;;5061058;28;20037;-77
2021/04/26 01:09:10;;;;;;;1.50;0.30;;;3.20;99.90;;;;;;5061549;28;20417;-77
2021/04/26 01:12:01;;;;;;;2.28;0.40;;;3.20;99.90;;;;;;5061164;28;20048;-77
2021/04/26 01:14:34;;;;;;;3.88;0.40;;;3.20;99.90;;;;;;5061044;28;20540;-77
2021/04/26 01:17:16;;;;;;;1.95;0.38;;;3.10;99.90;;;;;;5060873;28;20033;-77
2021/04/26 01:19:48;;;;;;;5.07;0.50;;;3.00;99.90;;;;;;5028238;28;20047;-77
2021/04/26 01:22:42;;;;;;;4.70;0.40;;;3.00;99.90;;;;;;5044439;28;20041;-77
2021/04/26 01:25:12;;;;;;;0.85;0.30;;;2.90;99.90;;;;;;5044466;28;20160;-77
2021/04/26 01:28:15;;;;;;;1.75;0.35;;;2.90;99.90;;;;;;5061025;28;20079;-77
2021/04/26 01:30:52;;;;;;;1.27;0.30;;;2.90;99.90;;;;;;5061043;28;20093;-77
2021/04/26 01:33:36;;;;;;;3.67;0.40;;;2.90;99.90;;;;;;5026141;28;20096;-77
2021/04/26 01:36:05;;;;;;;2.88;0.40;;;2.80;99.90;;;;;;5040824;28;20029;-77
2021/04/26 01:38:41;;;;;;;2.50;0.40;;;2.80;99.90;;;;;;5040562;28;20026;-77
2021/04/26 01:41:08;;;;;;;2.55;0.38;;;2.80;99.90;;;;;;5025728;28;20033;-77
2021/04/26 01:43:37;;;;;;;3.15;0.75;;;2.80;99.90;;;;;;5049667;28;20052;-77
2021/04/26 01:46:06;;;;;;;3.60;0.50;;;2.80;99.90;;;;;;5044254;28;20052;-77
2021/04/26 01:48:38;;;;;;;5.03;0.50;;;2.70;99.90;;;;;;5044210;28;20057;-77
2021/04/26 01:51:06;;;;;;;3.55;0.40;;;2.70;99.90;;;;;;5060841;28;20124;-77
2021/04/26 01:53:33;;;;;;;2.00;0.60;;;2.70;99.90;;;;;;5044089;28;20037;-77
2021/04/26 01:56:01;;;;;;;2.95;0.40;;;2.60;99.90;;;;;;5060618;28;20041;-77
2021/04/26 01:58:38;;;;;;;2.47;0.40;;;2.60;99.90;;;;;;5043978;28;20044;-77
2021/04/26 02:01:04;;;;;;;3.38;0.40;;;2.60;99.90;;;;;;5044252;28;20018;-77
2021/04/26 02:03:30;;;;;;;1.50;0.40;;;2.60;99.90;;;;;;5060636;28;20374;-77
2021/04/26 02:06:05;;;;;;;4.97;0.40;;;2.60;99.90;;;;;;5045244;28;20044;-77
2021/04/26 02:08:55;;;;;;;3.42;0.40;;;2.50;99.90;;;;;;5045291;28;20050;-77
2021/04/26 02:11:22;;;;;;;2.05;0.38;;;2.50;99.90;;;;;;5060529;28;20030;-77
2021/04/26 02:13:49;;;;;;;4.00;0.43;;;2.50;99.90;;;;;;5043805;28;20060;-77
2021/04/26 02:16:15;;;;;;;2.85;0.40;;;2.50;99.90;;;;;;5044110;28;20030;-77
2021/04/26 02:18:41;;;;;;;3.83;0.60;;;2.50;99.90;;;;;;5044054;28;20068;-77
2021/04/26 02:21:07;;;;;;;7.18;0.55;;;2.40;99.90;;;;;;5060698;28;20034;-77
2021/04/26 02:23:33;;;;;;;2.95;0.40;;;2.40;99.90;;;;;;5045201;28;20087;-77
2021/04/26 02:25:59;;;;;;;4.50;0.30;;;2.40;99.90;;;;;;5045167;28;20029;-77
2021/04/26 02:28:37;;;;;;;2.80;0.40;;;2.40;99.90;;;;;;5045670;28;20029;-77
2021/04/26 02:31:05;;;;;;;3.25;0.40;;;2.30;99.90;;;;;;5064070;28;20025;-77
2021/04/26 02:33:40;;;;;;;3.33;0.50;;;2.30;99.90;;;;;;5064274;28;20030;-77
2021/04/26 02:36:24;;;;;;;2.50;0.30;;;2.30;99.90;;;;;;5047609;28;20033;-77
2021/04/26 02:38:53;;;;;;;3.40;0.30;;;2.30;99.90;;;;;;5047658;28;20040;-77
2021/04/26 02:41:27;;;;;;;1.48;0.30;;;2.30;99.90;;;;;;5047620;28;20032;-77
2021/04/26 02:44:01;;;;;;;4.35;0.50;;;2.20;99.90;;;;;;5047196;28;20129;-77
2021/04/26 02:46:31;;;;;;;3.08;0.40;;;2.20;99.90;;;;;;5031167;28;20087;-77
2021/04/26 02:48:58;;;;;;;2.75;0.40;;;2.20;99.90;;;;;;5030995;28;20032;-77
2021/04/26 02:51:29;;;;;;;2.78;0.40;;;2.20;99.90;;;;;;5064207;28;20033;-77
2021/04/26 02:53:57;;;;;;;3.47;0.50;;;2.20;99.90;;;;;;5064027;28;20074;-77
2021/04/26 02:56:22;;;;;;;1.15;0.40;;;2.10;99.90;;;;;;5047367;28;20398;-78
2021/04/26 02:58:52;;;;;;;2.30;0.40;;;2.10;99.90;;;;;;5063987;28;20029;-77
2021/04/26 03:01:25;;;;;;;2.25;0.57;;;2.10;99.90;;;;;;5063828;28;20037;-77
2021/04/26 03:04:11;;;;;;;3.40;0.52;;;2.10;99.90;;;;;;5048069;28;20049;-77
2021/04/26 03:06:39;;;;;;;4.18;0.43;;;2.00;99.90;;;;;;5063300;28;20049;-77
2021/04/26 03:09:22;;;;;;;4.40;0.40;;;2.00;99.90;;;;;;5063740;28;20040;-77
2021/04/26 03:11:54;;;;;;;2.75;0.40;;;2.00;99.90;;;;;;5063593;28;20029;-77
2021/04/26 03:14:21;;;;;;;5.55;0.50;;;2.00;99.90;;;;;;5063397;28;20021;-77
2021/04/26 03:16:48;;;;;;;3.78;0.40;;;1.90;99.90;;;;;;5030202;28;20029;-77
2021/04/26 03:19:16;;;;;;;3.92;0.68;;;1.90;99.90;;;;;;5046900;28;20036;-77
2021/04/26 03:21:45;;;;;;;2.17;0.40;;;1.90;99.90;;;;;;5063433;28;20060;-77
2021/04/26 03:24:14;;;;;;;4.10;1.02;;;1.90;99.90;;;;;;5063452;28;20117;-77
2021/04/26 03:26:44;;;;;;;3.28;0.50;;;1.90;99.90;;;;;;5063245;28;20045;-77
2021/04/26 03:29:16;;;;;;;4.32;0.70;;;1.90;99.90;;;;;;5030450;28;20026;-77
2021/04/26 03:31:42;;;;;;;1.02;0.30;;;1.90;99.90;;;;;;5029879;28;20036;-77
2021/04/26 03:34:14;;;;;;;2.45;0.40;;;1.80;99.90;;;;;;5021611;28;20034;-77
2021/04/26 03:36:42;;;;;;;2.72;0.50;;;1.80;99.90;;;;;;5042909;28;20026;-77
2021/04/26 03:39:09;;;;;;;3.22;0.40;;;1.80;99.90;;;;;;5042626;28;20037;-77
2021/04/26 03:41:37;;;;;;;7.00;0.47;;;1.80;99.90;;;;;;5042981;28;20041;-77
2021/04/26 03:44:13;;;;;;;2.42;0.52;;;1.80;99.90;;;;;;5055931;28;20124;-77
2021/04/26 03:47:00;;;;;;;3.00;0.50;;;1.70;99.90;;;;;;5046342;28;20397;-77
2021/04/26 03:49:52;;;;;;;3.40;0.55;;;1.70;99.90;;;;;;5021784;28;20101;-77
2021/04/26 03:52:37;;;;;;;6.45;0.50;;;1.70;99.90;;;;;;5047323;28;20456;-77
2021/04/26 03:55:22;;;;;;;1.92;0.45;;;1.70;99.90;;;;;;5046261;28;20026;-77
2021/04/26 03:57:50;;;;;;;3.30;0.50;;;1.70;99.90;;;;;;5062456;28;20031;-77
2021/04/26 04:00:18;;;;;;;1.55;0.30;;;1.70;99.90;;;;;;5062697;28;20117;-77
2021/04/26 04:02:58;;;;;;;2.65;0.85;;;1.60;99.90;;;;;;5045712;28;20124;-77
2021/04/26 04:05:45;;;;;;;3.60;0.60;;;1.70;99.90;;;;;;5062542;28;20022;-77
2021/04/26 04:08:29;;;;;;;1.75;0.40;;;1.60;99.90;;;;;;4966326;29;20162;-77
2021/04/26 04:10:55;;;;;;;4.32;0.30;;;1.60;99.90;;;;;;4966489;29;20047;-77
2021/04/26 04:13:58;;;;;;;3.95;0.40;;;1.60;99.90;;;;;;4950040;29;20035;-77
2021/04/26 04:16:25;;;;;;;1.50;0.40;;;1.60;99.90;;;;;;4950201;29;20027;-77
2021/04/26 04:18:51;;;;;;;4.10;0.40;;;1.40;99.90;;;;;;4966240;29;20046;-77
2021/04/26 04:21:17;;;;;;;3.47;0.50;;;1.50;99.90;;;;;;4950221;29;20031;-77
2021/04/26 04:23:43;;;;;;;1.75;0.73;;;1.50;99.90;;;;;;4966142;29;20047;-77
2021/04/26 04:26:09;;;;;;;4.15;0.60;;;1.40;99.90;;;;;;4950021;29;20155;-77
2021/04/26 04:28:43;;;;;;;4.63;0.40;;;1.40;99.90;;;;;;4949744;29;20035;-77
2021/04/26 04:31:26;;;;;;;7.22;0.70;;;1.50;99.90;;;;;;4948828;29;20027;-77
2021/04/26 04:34:14;;;;;;;1.67;0.30;;;1.50;99.90;;;;;;4943122;29;20069;-77
2021/04/26 04:36:59;;;;;;;2.65;0.45;;;1.50;99.90;;;;;;4965389;29;20106;-77
2021/04/26 04:39:43;;;;;;;3.58;0.40;;;1.50;99.90;;;;;;4945603;29;20035;-77
2021/04/26 04:42:29;;;;;;;3.85;0.40;;;1.50;99.90;;;;;;4932700;29;20031;-77
2021/04/26 04:44:55;;;;;;;4.55;0.60;;;1.60;99.90;;;;;;4997245;28;20052;-77
2021/04/26 04:47:21;;;;;;;3.42;0.43;;;1.50;99.90;;;;;;5044155;28;20021;-77
2021/04/26 04:49:47;;;;;;;4.00;0.60;;;1.50;99.90;;;;;;5044156;28;20056;-77
2021/04/26 04:52:13;;;;;;;3.45;0.60;;;1.60;99.90;;;;;;5043331;28;20105;-77
2021/04/26 04:54:39;;;;;;;6.97;0.80;;;1.60;99.90;;;;;;5044402;28;20030;-77
2021/04/26 04:57:07;;;;;;;4.13;0.50;;;1.60;99.90;;;;;;5024221;28;20490;-77
2021/04/26 04:59:37;;;;;;;3.55;0.47;;;1.60;99.90;;;;;;5024317;28;20026;-77
2021/04/26 05:02:11;;;;;;;2.72;0.50;;;1.70;99.90;;;;;;5060325;28;20102;-78
2021/04/26 05:04:55;;;;;;;3.08;0.40;;;1.70;99.90;;;;;;5044296;28;20091;-77
2021/04/26 05:07:39;;;;;;;1.92;0.50;;;1.70;99.90;;;;;;5075192;22;20091;-77
2021/04/26 05:10:28;;;;;;;4.60;0.50;;;1.70;99.90;;;;;;5033801;28;20105;-77
2021/04/26 05:13:13;;;;;;;2.67;0.60;;;1.80;99.90;;;;;;5085395;28;20047;-77
2021/04/26 05:15:42;;;;;;;5.70;0.55;;;1.80;99.90;;;;;;5084266;28;20020;-77
2021/04/26 05:18:09;;;;;;;8.57;0.90;;;1.80;99.90;;;;;;5067723;28;20028;-77
2021/04/26 05:20:35;;;;;;;5.70;1.52;;;1.80;99.90;;;;;;5067484;28;20423;-78
2021/04/26 05:23:02;;;;;;;3.10;0.60;;;1.90;99.90;;;;;;5067555;28;20060;-77
2021/04/26 05:25:31;;;;;;;3.90;0.50;;;2.00;99.90;;;;;;5084095;28;20080;-77
2021/04/26 05:27:57;;;;;;;5.65;0.60;;;2.00;99.90;;;;;;5067453;28;20024;-77
2021/04/26 05:30:24;;;;;;;4.47;0.50;;;2.10;99.90;;;;;;5067036;28;20028;-77
2021/04/26 05:32:50;;;;;;;4.45;0.60;;;2.10;99.90;;;;;;5067011;28;20032;-78
2021/04/26 05:35:45;;;;;;;2.33;0.60;;;2.10;99.90;;;;;;5046693;28;20043;-77
2021/04/26 05:38:17;;;;;;;2.42;0.50;;;2.20;99.90;;;;;;5047700;28;20032;-77
2021/04/26 05:40:47;;;;;;;2.30;0.50;;;2.30;99.90;;;;;;5064511;28;20035;-77
2021/04/26 05:43:13;;;;;;;3.45;0.60;;;2.30;99.90;;;;;;5066018;28;20036;-77
2021/04/26 05:45:40;;;;;;;3.92;0.60;;;2.40;99.90;;;;;;5066723;28;20036;-77
2021/04/26 05:48:15;;;;;;;3.63;0.73;;;2.40;99.90;;;;;;5082267;28;20079;-77
2021/04/26 05:50:42;;;;;;;4.40;0.60;;;2.50;99.90;;;;;;5083611;28;20036;-77
2021/04/26 05:53:08;;;;;;;2.60;0.55;;;2.50;99.90;;;;;;5084583;28;20040;-78
2021/04/26 05:55:33;;;;;;;4.90;0.68;;;2.60;99.90;;;;;;5083009;28;20025;-78
2021/04/26 05:57:59;;;;;;;5.30;0.70;;;2.60;99.90;;;;;;5079656;28;20039;-77
2021/04/26 06:00:26;;;;;;;5.88;0.85;;;2.70;99.90;;;;;;5084364;28;20059;-77
2021/04/26 06:02:51;;;;;;;3.40;0.63;;;2.80;99.90;;;;;;5087109;28;20036;-77
2021/04/26 06:05:37;;;;;;;2.97;0.95;;;2.90;99.90;;;;;;5088049;28;20071;-77
2021/04/26 06:08:04;;;;;;;2.90;1.08;;;3.00;99.90;;;;;;5061207;28;20053;-77
2021/04/26 06:10:29;;;;;;;3.90;0.70;;;3.10;99.90;;;;;;5044689;28;20071;-77
2021/04/26 06:12:55;;;;;;;7.05;0.90;;;3.20;99.90;;;;;;5048968;28;20497;-77
2021/04/26 06:15:22;;;;;;;4.78;0.90;;;3.50;99.90;;;;;;5032763;28;20041;-77
2021/04/26 06:17:48;;;;;;;2.22;0.50;;;3.60;99.90;;;;;;5049313;28;20025;-77
2021/04/26 06:20:14;;;;;;;3.38;1.02;;;3.80;99.90;;;;;;5065626;28;20041;-78
2021/04/26 06:22:41;;;;;;;2.90;0.60;;;4.00;99.90;;;;;;5065949;28;20064;-77
2021/04/26 06:25:07;;;;;;;5.18;0.70;;;4.10;99.90;;;;;;5048884;28;20048;-78
2021/04/26 06:27:33;;;;;;;3.55;0.50;;;4.20;99.90;;;;;;5021415;28;20198;-78
2021/04/26 06:29:58;;;;;;;3.50;0.60;;;4.40;99.90;;;;;;5049628;28;20033;-77
2021/04/26 06:32:24;;;;;;;2.00;0.40;;;4.50;99.90;;;;;;5063399;28;20062;-77
2021/04/26 06:34:51;;;;;;;5.13;0.50;;;4.70;99.90;;;;;;5060351;28;20067;-78
2021/04/26 06:37:17;;;;;;;3.53;0.60;;;4.90;99.90;;;;;;5063454;28;20040;-78
2021/04/26 06:39:42;;;;;;;3.50;0.60;;;5.10;99.90;;;;;;5029958;28;20045;-78
2021/04/26 06:42:08;;;;;;;3.55;0.50;;;5.20;99.90;;;;;;5046356;28;20145;-77
2021/04/26 06:44:34;;;;;;;3.00;0.50;;;5.30;99.90;;;;;;5051925;28;20067;-77
2021/04/26 06:47:00;;;;;;;3.60;0.55;;;5.40;99.90;;;;;;5068860;28;20025;-78
2021/04/26 06:49:26;;;;;;;4.25;0.52;;;5.60;99.90;;;;;;5049804;28;20025;-78
2021/04/26 06:51:52;;;;;;;2.35;0.50;;;5.80;99.90;;;;;;5054368;28;20132;-77
2021/04/26 06:54:19;;;;;;;4.82;0.45;;;6.00;99.90;;;;;;5067733;28;20090;-78
2021/04/26 06:56:45;;;;;;;3.03;0.32;;;6.10;99.90;;;;;;5067275;28;20420;-79
2021/04/26 06:59:11;;;;;;;3.33;0.50;;;6.40;99.90;;;;;;5066299;28;20032;-78
2021/04/26 07:01:37;;;;;;;3.97;0.40;;;6.50;99.90;;;;;;5066440;28;20029;-78
2021/04/26 07:04:03;;;;;;;1.30;0.38;;;6.60;99.90;;;;;;5066394;28;20567;-77
2021/04/26 07:06:29;;;;;;;2.85;0.40;;;6.70;99.90;;;;;;5065597;28;20028;-78
2021/04/26 07:08:55;;;;;;;1.55;0.40;;;6.90;99.90;;;;;;5077466;28;20111;-79
2021/04/26 07:11:21;;;;;;;2.35;0.50;;;7.00;99.90;;;;;;5086780;28;20051;-78
2021/04/26 07:13:47;;;;;;;1.60;0.40;;;7.10;99.90;;;;;;5068342;28;20029;-78
2021/04/26 07:16:12;;;;;;;2.72;0.45;;;7.30;99.90;;;;;;5069311;28;20058;-78
2021/04/26 07:18:38;;;;;;;2.33;0.47;;;7.50;99.90;;;;;;5087562;28;20031;-78
2021/04/26 07:21:05;;;;;;;1.85;0.50;;;7.50;99.90;;;;;;5087431;28;20021;-78
2021/04/26 07:23:30;;;;;;;2.25;0.40;;;7.40;99.90;;;;;;5069534;28;20122;-78
2021/04/26 07:25:56;;;;;;;3.85;0.40;;;7.60;99.90;;;;;;5069198;28;20029;-79
2021/04/26 07:28:22;;;;;;;1.67;0.40;;;7.80;99.90;;;;;;5069189;28;20021;-79
2021/04/26 07:30:48;;;;;;;2.55;0.68;;;7.90;99.90;;;;;;5070737;28;20047;-78
2021/04/26 07:33:13;;;;;;;1.65;0.30;;;8.30;99.90;;;;;;5069069;28;20032;-79
2021/04/26 07:35:39;;;;;;;1.80;0.40;;;8.30;99.90;;;;;;5068870;28;20090;-79
2021/04/26 07:38:05;;;;;;;1.73;0.30;;;8.50;99.90;;;;;;5068930;28;20025;-79
2021/04/26 07:40:31;;;;;;;3.17;0.50;;;8.70;99.90;;;;;;5086886;28;20492;-79
2021/04/26 07:42:56;;;;;;;2.05;0.43;;;8.50;99.90;;;;;;5068789;28;20048;-79
2021/04/26 07:45:22;;;;;;;2.10;0.30;;;8.80;99.90;;;;;;5085636;28;20036;-79
2021/04/26 07:47:49;;;;;;;2.88;0.52;;;8.80;99.90;;;;;;5057439;28;20029;-79
2021/04/26 07:50:16;;;;;;;3.58;0.40;;;8.40;99.90;;;;;;5068674;28;20030;-79
2021/04/26 07:52:42;;;;;;;2.83;0.50;;;8.80;99.90;;;;;;5051903;28;20037;-79
2021/04/26 07:55:08;;;;;;;3.00;0.47;;;8.50;99.90;;;;;;5068328;28;20028;-79
2021/04/26 07:57:35;;;;;;;3.03;0.63;;;8.80;99.90;;;;;;5086119;28;20511;-79
2021/04/26 08:00:03;;;;;;;3.72;0.40;;;9.30;99.90;;;;;;5071090;28;20088;-79
2021/04/26 08:02:30;;;;;;;2.08;0.40;;;9.60;99.90;;;;;;5068800;28;20064;-79
2021/04/26 08:04:56;;;;;;;2.08;0.55;;;9.20;99.90;;;;;;5086700;28;20051;-79
2021/04/26 08:07:21;;;;;;;2.45;0.40;;;8.90;99.90;;;;;;5055248;28;20093;-79
2021/04/26 08:09:47;;;;;;;1.80;0.50;;;9.20;99.90;;;;;;5047475;28;20067;-80
2021/04/26 08:12:13;;;;;;;4.25;0.95;;;9.10;99.90;;;;;;5031857;28;20017;-79
2021/04/26 08:14:38;;;;;;;2.10;0.50;;;9.30;99.90;;;;;;5063321;28;20097;-79
2021/04/26 08:17:04;;;;;;;2.92;0.50;;;9.20;99.90;;;;;;5068192;28;20029;-79
2021/04/26 08:19:30;;;;;;;2.65;0.60;;;8.90;99.90;;;;;;5082980;28;20032;-80
2021/04/26 08:21:55;;;;;;;1.58;0.40;;;9.30;99.90;;;;;;5084845;28;20043;-79
2021/04/26 08:24:21;;;;;;;2.72;0.57;;;10.00;99.90;;;;;;5067791;28;20048;-79
2021/04/26 08:26:47;;;;;;;2.50;0.50;;;10.00;99.90;;;;;;5086107;28;20040;-79
2021/04/26 08:29:12;;;;;;;2.15;0.47;;;9.80;99.90;;;;;;5067944;28;20043;-80
2021/04/26 08:31:38;;;;;;;1.60;0.40;;;10.00;99.90;;;;;;5067936;28;20024;-80
2021/04/26 08:34:04;;;;;;;4.72;0.63;;;10.10;99.90;;;;;;5068180;28;20055;-80
2021/04/26 08:36:29;;;;;;;2.47;0.40;;;10.00;99.90;;;;;;5067846;28;20029;-80
2021/04/26 08:38:55;;;;;;;1.40;0.40;;;10.60;99.90;;;;;;5085769;28;20066;-80
2021/04/26 08:41:21;;;;;;;1.77;0.35;;;10.90;99.90;;;;;;5050972;28;20059;-80
2021/04/26 08:43:48;;;;;;;1.98;0.30;;;11.20;99.90;;;;;;5050895;28;20314;-80
2021/04/26 08:46:13;;;;;;;1.75;0.40;;;11.10;99.90;;;;;;5066651;28;20025;-80
2021/04/26 08:48:39;;;;;;;3.58;0.60;;;11.00;99.90;;;;;;5085151;28;20031;-80
2021/04/26 08:51:05;;;;;;;3.75;0.57;;;10.90;99.90;;;;;;5067349;28;20028;-80
2021/04/26 08:53:32;;;;;;;1.60;0.40;;;10.80;99.90;;;;;;5075375;28;20027;-80
2021/04/26 08:55:58;;;;;;;2.92;0.50;;;10.60;99.90;;;;;;5067643;28;20079;-80
2021/04/26 08:58:26;;;;;;;5.60;0.60;;;10.70;99.90;;;;;;5067245;28;20484;-80
2021/04/26 09:00:51;;;;;;;3.10;0.50;;;10.40;99.90;;;;;;5067767;28;20040;-80
2021/04/26 09:03:17;;;;;;;3.05;0.85;;;10.50;99.90;;;;;;5067391;28;20036;-80
2021/04/26 09:05:47;;;;;;;5.45;0.50;;;10.90;99.90;;;;;;5085310;28;20114;-80
2021/04/26 09:08:23;;;;;;;1.95;0.50;;;11.80;99.90;;;;;;5066480;28;20045;-80
2021/04/26 09:10:53;;;;;;;1.15;0.43;;;11.90;99.90;;;;;;5056515;28;20024;-80
2021/04/26 09:13:32;;;;;;;;;;;11.20;99.90;;;;;;5056306;28;20491;-80
2021/04/26 09:16:04;;;;;;;1.80;0.50;;;10.80;99.90;;;;;;5081051;28;20240;-80
2021/04/26 09:18:47;;;;;;;2.58;0.50;;;11.40;99.90;;;;;;5066584;28;20038;-79
2021/04/26 09:21:33;;;;;;;3.78;0.65;;;11.70;99.90;;;;;;5080019;28;20118;-80
2021/04/26 09:24:13;;;;;;;2.88;0.40;;;12.20;99.90;;;;;;5066279;28;20058;-80
2021/04/26 09:26:40;;;;;;;2.80;0.45;;;12.40;99.10;;;;;;5085094;28;20048;-79
2021/04/26 09:29:15;;;;;;;2.97;0.40;;;12.10;96.20;;;;;;5066588;28;20039;-79
2021/04/26 09:31:41;;;;;;;1.67;0.50;;;11.60;95.70;;;;;;5049965;28;20041;-80
2021/04/26 09:34:28;;;;;;;3.80;0.70;;;11.50;96.10;;;;;;5066612;28;20029;-79
2021/04/26 09:37:08;;;;;;;2.88;0.52;;;12.20;95.40;;;;;;5049585;28;20063;-79
2021/04/26 09:39:59;;;;;;;1.05;0.30;;;12.20;95.00;;;;;;5077600;28;20066;-79
2021/04/26 09:42:47;;;;;;;2.10;0.30;;;12.40;95.30;;;;;;5044457;28;20466;-80
2021/04/26 09:45:16;;;;;;;1.60;0.40;;;13.10;94.30;;;;;;5065477;28;20033;-80
2021/04/26 09:47:42;;;;;;;2.58;0.40;;;13.30;93.30;;;;;;5063279;28;20025;-79
2021/04/26 09:50:08;;;;;;;0.85;0.28;;;13.10;94.40;;;;;;5053593;28;20104;-79
2021/04/26 09:52:33;;;;;;;1.13;0.40;;;13.10;93.00;;;;;;5064102;28;20059;-80
2021/04/26 09:54:59;;;;;;;1.00;0.40;;;12.70;93.50;;;;;;5058492;28;20324;-79
2021/04/26 09:57:25;;;;;;;1.30;0.40;;;12.70;92.70;;;;;;5054789;28;20191;-79
2021/04/26 09:59:51;;;;;;;1.45;0.30;;;13.40;92.50;;;;;;5043972;28;20043;-79
2021/04/26 10:02:17;;;;;;;1.75;0.50;;;13.50;93.50;;;;;;5084507;28;20025;-80
2021/04/26 10:04:43;;;;;;;2.00;0.50;;;12.70;91.40;;;;;;5077129;28;20123;-80
2021/04/26 10:07:11;;;;;;;1.25;0.30;;;12.20;92.90;;;;;;5062300;28;20056;-79
2021/04/26 10:09:41;;;;;;;4.20;0.40;;;12.10;93.60;;;;;;5063662;28;20051;-79
2021/04/26 10:12:09;;;;;;;1.73;0.60;;;12.50;93.20;;;;;;5084594;28;20033;-79
2021/04/26 10:14:40;;;;;;;1.90;0.50;;;12.60;93.40;;;;;;5084191;28;20017;-79
2021/04/26 10:17:11;;;;;;;1.00;0.32;;;12.80;92.30;;;;;;5049171;28;20029;-78
2021/04/26 10:19:47;;;;;;;1.08;0.30;;;13.70;92.10;;;;;;5064660;28;20032;-79
2021/04/26 10:22:13;;;;;;;3.97;0.60;;;13.60;92.10;;;;;;5060024;28;20036;-79
2021/04/26 10:24:56;;;;;;;2.85;0.60;;;12.50;91.70;;;;;;5071183;28;20032;-79
2021/04/26 10:27:29;;;;;;;2.20;0.52;;;13.50;91.90;;;;;;5065596;28;20028;-79
2021/04/26 10:30:04;;;;;;;2.70;0.45;;;12.60;91.70;;;;;;5084222;28;20025;-80
2021/04/26 10:32:50;;;;;;;2.88;0.85;;;12.50;91.00;;;;;;5049621;28;20166;-79
2021/04/26 10:35:16;;;;;;;4.18;0.40;;;12.70;90.70;;;;;;5049469;28;20109;-79
2021/04/26 10:37:42;;;;;;;0.93;0.30;;;13.50;89.20;;;;;;5066279;28;20037;-79
2021/04/26 10:40:10;;;;;;;1.80;0.30;;;13.40;85.80;;;;;;5066341;28;20123;-80
2021/04/26 10:42:46;;;;;;;2.47;0.30;;;14.10;89.90;;;;;;5066089;28;20060;-79
2021/04/26 10:45:11;;;;;;;1.70;0.40;;;14.10;89.00;;;;;;5049557;28;20062;-80
2021/04/26 10:47:42;;;;;;;1.05;0.40;;;14.30;88.40;;;;;;5049348;28;20021;-80
2021/04/26 10:50:07;;;;;;;1.38;0.40;;;14.10;84.30;;;;;;5086653;28;20032;-79
2021/04/26 10:52:34;;;;;;;3.80;0.70;;;13.30;86.20;;;;;;5087873;28;20032;-79
2021/04/26 10:55:20;;;;;;;2.78;0.50;;;13.30;90.00;;;;;;5052968;28;20040;-79
2021/04/26 10:57:51;;;;;;;2.20;0.30;;;13.70;87.20;;;;;;5087409;28;20029;-79
2021/04/26 11:00:20;;;;;;;0.77;0.30;;;14.20;85.00;;;;;;5081471;28;20052;-79
2021/04/26 11:02:59;;;;;;;1.35;0.43;;;14.40;88.00;;;;;;5086038;28;20100;-79
2021/04/26 11:08:37;;;;;;;2.25;0.50;;;13.90;87.10;;;;;;5031313;28;20049;-80
2021/04/26 11:11:20;;;;;;;4.32;0.60;;;13.90;89.10;;;;;;5011165;28;20081;-79
2021/04/26 11:13:57;;;;;;;1.10;0.30;;;13.30;83.60;;;;;;5015864;28;20042;-79
2021/04/26 11:16:32;;;;;;;3.25;0.50;;;13.60;87.40;;;;;;5004479;28;20185;-79
2021/04/26 11:18:58;;;;;;;1.92;0.50;;;13.90;90.90;;;;;;5008769;28;20053;-79
2021/04/26 11:21:42;;;;;;;1.70;0.50;;;14.00;85.30;;;;;;5014032;28;20026;-79
2021/04/26 11:24:08;;;;;;;1.75;0.30;;;14.70;84.80;;;;;;5025198;28;20042;-79
2021/04/26 11:26:34;;;;;;;0.98;0.20;;;14.90;84.60;;;;;;5025073;28;20046;-79
2021/04/26 11:29:13;;;;;;;4.53;0.77;;;15.10;83.40;;;;;;5019177;28;20049;-80
2021/04/26 11:31:41;;;;;;;1.90;0.40;;;14.40;84.40;;;;;;5018870;28;20079;-80
2021/04/26 11:34:18;;;;;;;0.98;0.30;;;13.70;83.90;;;;;;5036332;28;20025;-80
2021/04/26 11:37:17;;;;;;;3.22;0.50;;;14.20;84.00;;;;;;5047964;28;20059;-80
2021/04/26 11:39:43;;;;;;;0.90;0.30;;;14.60;85.40;;;;;;5015792;28;20033;-81
2021/04/26 11:42:18;;;;;;;0.80;0.28;;;14.90;83.20;;;;;;5047747;28;20129;-79
2021/04/26 11:44:44;;;;;;;2.05;0.30;;;15.20;84.30;;;;;;5032485;28;20053;-80
2021/04/26 11:47:14;;;;;;;1.67;0.40;;;15.20;82.40;;;;;;5048870;28;20078;-80
2021/04/26 11:49:43;;;;;;;3.75;0.70;;;15.50;82.50;;;;;;5078469;28;20036;-81
2021/04/26 11:52:29;;;;;;;1.83;0.40;;;14.30;79.80;;;;;;5051622;28;20040;-80
2021/04/26 11:55:04;;;;;;;2.85;0.40;;;14.30;76.80;;;;;;5086720;28;20091;-80
2021/04/26 11:57:50;;;;;;;1.58;0.30;;;15.10;79.70;;;;;;5068487;28;20028;-79
2021/04/26 12:00:16;;;;;;;1.83;0.40;;;15.10;80.80;;;;;;5068228;28;20472;-80
2021/04/26 12:02:50;;;;;;;2.80;0.60;;;14.50;78.70;;;;;;5068530;28;20055;-80
2021/04/26 12:05:38;;;;;;;1.48;0.40;;;14.30;80.90;;;;;;5068606;28;20028;-79
2021/04/26 12:08:04;;;;;;;1.10;0.30;;;14.80;81.70;;;;;;5010785;28;20071;-79
2021/04/26 12:10:31;;;;;;;2.78;0.38;;;15.20;75.80;;;;;;5011345;28;20045;-80
2021/04/26 12:13:01;;;;;;;1.20;0.30;;;15.00;74.60;;;;;;5029558;28;20037;-80
2021/04/26 12:15:27;;;;;;;1.05;0.38;;;15.30;77.60;;;;;;5044309;28;20041;-79
2021/04/26 12:17:55;;;;;;;1.75;0.40;;;15.30;77.60;;;;;;5026449;28;20081;-79
2021/04/26 12:20:27;;;;;;;1.80;0.30;;;15.10;76.20;;;;;;5035845;28;20064;-79
2021/04/26 12:22:58;;;;;;;2.78;0.40;;;15.30;78.20;;;;;;5044191;28;20064;-79
2021/04/26 12:25:26;;;;;;;2.10;0.32;;;15.50;76.90;;;;;;5060485;28;20044;-78
2021/04/26 12:28:03;;;;;;;1.63;0.73;;;15.60;77.80;;;;;;5043653;28;20038;-78
2021/04/26 12:30:38;;;;;;;5.20;0.52;;;15.80;77.20;;;;;;5043516;28;20029;-80
2021/04/26 12:33:19;;;;;;;1.70;0.50;;;14.70;76.90;;;;;;5043474;28;20120;-78
2021/04/26 12:35:45;;;;;;;1.95;0.40;;;14.60;77.70;;;;;;5007269;28;20209;-78
2021/04/26 12:38:12;;;;;;;3.00;0.40;;;15.20;78.50;;;;;;5034109;28;20072;-78
2021/04/26 12:40:38;;;;;;;1.50;0.25;;;15.70;78.80;;;;;;5010673;28;20516;-78
2021/04/26 12:43:06;;;;;;;2.47;0.30;;;15.70;78.00;;;;;;5043046;28;20037;-78
2021/04/26 12:45:39;;;;;;;1.90;0.50;;;15.50;78.40;;;;;;5056916;28;20055;-78
2021/04/26 12:48:10;;;;;;;2.72;0.40;;;15.00;77.20;;;;;;5082933;28;20029;-78
2021/04/26 12:50:39;;;;;;;3.08;0.40;;;15.70;79.40;;;;;;5064934;28;20035;-78
2021/04/26 12:53:07;;;;;;;1.63;0.50;;;16.30;78.50;;;;;;5047459;28;20029;-78
2021/04/26 12:55:49;;;;;;;1.65;0.50;;;15.20;74.30;;;;;;5047514;28;20041;-78
2021/04/26 12:58:33;;;;;;;4.20;0.63;;;14.40;78.20;;;;;;5031051;28;20454;-78
2021/04/26 13:01:04;;;;;;;5.05;0.70;;;14.40;79.50;;;;;;5062747;28;20059;-78
2021/04/26 13:03:37;;;;;;;1.50;0.40;;;14.40;79.50;;;;;;5067219;28;20471;-78
2021/04/26 13:06:12;;;;;;;2.60;0.65;;;14.50;76.90;;;;;;5085309;28;20032;-79
2021/04/26 13:08:40;;;;;;;1.85;0.55;;;14.40;78.60;;;;;;5067455;28;20040;-81
2021/04/26 13:11:08;;;;;;;4.88;0.60;;;14.10;79.90;;;;;;5085070;28;20408;-81
2021/04/26 13:14:02;;;;;;;2.67;0.85;;;14.60;80.40;;;;;;5049591;28;20028;-81